sensor_id;sensor_type;location;lat;lon;timestamp;pressure;altitude;pressure_sealevel;temperature;humidity
44385;BME280;30101;32.778;34.994;2022-07-10T00:02:48;96729.81;;;23.97;73.88
44385;BME280;30101;32.778;34.994;2022-07-10T00:07:52;96735.09;;;23.93;73.72
44385;BME280;30101;32.778;34.994;2022-07-10T00:12:55;96728.38;;;23.90;73.68
44385;BME280;30101;32.778;34.994;2022-07-10T00:17:59;96726.09;;;23.92;73.97
44385;BME280;30101;32.778;34.994;2022-07-10T00:23:03;96719.38;;;23.90;73.88
44385;BME280;30101;32.778;34.994;2022-07-10T00:28:06;96725.97;;;23.89;74.24
44385;BME280;30101;32.778;34.994;2022-07-10T00:33:11;96727.38;;;23.86;74.27
44385;BME280;30101;32.778;34.994;2022-07-10T00:38:14;96728.53;;;23.85;74.30
44385;BME280;30101;32.778;34.994;2022-07-10T00:43:18;96718.91;;;23.79;74.22
44385;BME280;30101;32.778;34.994;2022-07-10T00:48:22;96726.75;;;23.81;74.10
44385;BME280;30101;32.778;34.994;2022-07-10T00:53:25;96727.56;;;23.81;74.31
44385;BME280;30101;32.778;34.994;2022-07-10T00:58:29;96733.31;;;23.80;74.34
44385;BME280;30101;32.778;34.994;2022-07-10T01:03:33;96732.84;;;23.78;74.42
44385;BME280;30101;32.778;34.994;2022-07-10T01:08:36;96728.19;;;23.78;74.15
44385;BME280;30101;32.778;34.994;2022-07-10T01:13:42;96727.88;;;23.80;74.56
44385;BME280;30101;32.778;34.994;2022-07-10T01:18:46;96730.78;;;23.83;74.47
44385;BME280;30101;32.778;34.994;2022-07-10T01:23:52;96739.44;;;23.85;74.47
44385;BME280;30101;32.778;34.994;2022-07-10T01:28:57;96729.19;;;23.82;74.25
44385;BME280;30101;32.778;34.994;2022-07-10T01:34:03;96726.75;;;23.81;74.27
44385;BME280;30101;32.778;34.994;2022-07-10T01:39:08;96722.91;;;23.82;74.45
44385;BME280;30101;32.778;34.994;2022-07-10T01:44:11;96718.28;;;23.82;74.32
44385;BME280;30101;32.778;34.994;2022-07-10T01:49:15;96721.63;;;23.79;74.41
44385;BME280;30101;32.778;34.994;2022-07-10T01:54:18;96727.88;;;23.80;74.78
44385;BME280;30101;32.778;34.994;2022-07-10T01:59:22;96723.22;;;23.80;74.94
44385;BME280;30101;32.778;34.994;2022-07-10T02:04:26;96716.03;;;23.84;74.74
44385;BME280;30101;32.778;34.994;2022-07-10T02:09:29;96726.13;;;23.84;74.47
44385;BME280;30101;32.778;34.994;2022-07-10T02:14:33;96711.38;;;23.85;74.80
44385;BME280;30101;32.778;34.994;2022-07-10T02:19:37;96726.13;;;23.84;75.02
44385;BME280;30101;32.778;34.994;2022-07-10T02:24:40;96716.34;;;23.83;74.87
44385;BME280;30101;32.778;34.994;2022-07-10T02:29:44;96722.28;;;23.85;75.25
44385;BME280;30101;32.778;34.994;2022-07-10T02:34:48;96721.63;;;23.88;75.41
44385;BME280;30101;32.778;34.994;2022-07-10T02:39:52;96722.13;;;23.90;75.09
44385;BME280;30101;32.778;34.994;2022-07-10T02:44:55;96722.75;;;23.95;75.12
44385;BME280;30101;32.778;34.994;2022-07-10T02:49:58;96718.56;;;23.98;75.35
44385;BME280;30101;32.778;34.994;2022-07-10T02:55:02;96732.06;;;24.03;75.44
44385;BME280;30101;32.778;34.994;2022-07-10T03:00:06;96717.28;;;24.04;75.27
44385;BME280;30101;32.778;34.994;2022-07-10T03:05:12;96732.53;;;24.05;75.43
44385;BME280;30101;32.778;34.994;2022-07-10T03:10:17;96736.53;;;24.08;75.46
44385;BME280;30101;32.778;34.994;2022-07-10T03:15:21;96748.41;;;24.12;75.16
44385;BME280;30101;32.778;34.994;2022-07-10T03:20:25;96745.19;;;24.10;75.38
44385;BME280;30101;32.778;34.994;2022-07-10T03:25:37;96746.47;;;24.12;75.10
44385;BME280;30101;32.778;34.994;2022-07-10T03:30:40;96748.22;;;24.17;74.88
44385;BME280;30101;32.778;34.994;2022-07-10T03:35:44;96743.25;;;24.19;75.08
44385;BME280;30101;32.778;34.994;2022-07-10T03:40:48;96748.88;;;24.22;74.65
44385;BME280;30101;32.778;34.994;2022-07-10T03:45:52;96743.41;;;24.22;74.89
44385;BME280;30101;32.778;34.994;2022-07-10T03:50:56;96755.09;;;24.32;74.93
44385;BME280;30101;32.778;34.994;2022-07-10T03:55:59;96753.72;;;24.34;74.68
44385;BME280;30101;32.778;34.994;2022-07-10T04:01:03;96744.41;;;24.35;74.28
44385;BME280;30101;32.778;34.994;2022-07-10T04:06:06;96756.88;;;24.45;74.37
44385;BME280;30101;32.778;34.994;2022-07-10T04:11:10;96758.97;;;24.48;74.30
44385;BME280;30101;32.778;34.994;2022-07-10T04:16:13;96763.47;;;24.44;74.14
44385;BME280;30101;32.778;34.994;2022-07-10T04:21:17;96761.88;;;24.43;74.09
44385;BME280;30101;32.778;34.994;2022-07-10T04:26:21;96772.16;;;24.46;74.13
44385;BME280;30101;32.778;34.994;2022-07-10T04:31:25;96767.78;;;24.54;74.08
44385;BME280;30101;32.778;34.994;2022-07-10T04:36:28;96766.81;;;24.58;74.15
44385;BME280;30101;32.778;34.994;2022-07-10T04:41:32;96764.41;;;24.65;73.68
44385;BME280;30101;32.778;34.994;2022-07-10T04:46:35;96772.09;;;24.72;73.48
44385;BME280;30101;32.778;34.994;2022-07-10T04:51:39;96768.53;;;24.80;73.43
44385;BME280;30101;32.778;34.994;2022-07-10T04:56:48;96770.56;;;24.92;73.04
44385;BME280;30101;32.778;34.994;2022-07-10T05:01:52;96770.06;;;25.07;73.07
44385;BME280;30101;32.778;34.994;2022-07-10T05:06:56;96760.00;;;25.28;72.51
44385;BME280;30101;32.778;34.994;2022-07-10T05:12:00;96760.66;;;25.55;71.76
44385;BME280;30101;32.778;34.994;2022-07-10T05:17:03;96774.44;;;25.88;71.00
44385;BME280;30101;32.778;34.994;2022-07-10T05:22:07;96766.13;;;25.85;70.79
44385;BME280;30101;32.778;34.994;2022-07-10T05:27:10;96772.84;;;25.87;70.71
44385;BME280;30101;32.778;34.994;2022-07-10T05:32:14;96772.75;;;25.96;70.71
44385;BME280;30101;32.778;34.994;2022-07-10T05:37:18;96771.47;;;27.62;67.75
44385;BME280;30101;32.778;34.994;2022-07-10T05:42:22;96761.28;;;30.75;61.29
44385;BME280;30101;32.778;34.994;2022-07-10T05:47:25;96755.34;;;32.59;57.31
44385;BME280;30101;32.778;34.994;2022-07-10T05:52:29;96767.03;;;31.35;59.10
44385;BME280;30101;32.778;34.994;2022-07-10T05:57:32;96759.88;;;32.78;56.63
44385;BME280;30101;32.778;34.994;2022-07-10T06:02:36;96764.03;;;32.61;56.40
44385;BME280;30101;32.778;34.994;2022-07-10T06:07:39;96764.41;;;31.42;58.89
44385;BME280;30101;32.778;34.994;2022-07-10T06:12:43;96759.50;;;30.67;59.80
44385;BME280;30101;32.778;34.994;2022-07-10T06:17:46;96753.34;;;30.31;59.81
44385;BME280;30101;32.778;34.994;2022-07-10T06:22:50;96756.91;;;29.97;60.16
44385;BME280;30101;32.778;34.994;2022-07-10T06:27:53;96754.44;;;29.57;60.24
44385;BME280;30101;32.778;34.994;2022-07-10T06:32:57;96759.25;;;29.28;60.70
44385;BME280;30101;32.778;34.994;2022-07-10T06:38:01;96760.75;;;29.10;61.42
44385;BME280;30101;32.778;34.994;2022-07-10T06:43:04;96763.78;;;29.20;60.53
44385;BME280;30101;32.778;34.994;2022-07-10T06:48:08;96765.50;;;30.92;55.87
44385;BME280;30101;32.778;34.994;2022-07-10T06:53:15;96759.69;;;32.26;53.04
44385;BME280;30101;32.778;34.994;2022-07-10T06:58:29;96764.00;;;33.90;49.93
44385;BME280;30101;32.778;34.994;2022-07-10T07:03:33;96769.09;;;34.61;48.20
44385;BME280;30101;32.778;34.994;2022-07-10T07:08:37;96770.59;;;34.41;49.31
44385;BME280;30101;32.778;34.994;2022-07-10T07:13:40;96779.94;;;34.04;50.77
44385;BME280;30101;32.778;34.994;2022-07-10T07:18:44;96777.38;;;33.29;52.88
44385;BME280;30101;32.778;34.994;2022-07-10T07:23:48;96783.84;;;32.63;54.25
44385;BME280;30101;32.778;34.994;2022-07-10T07:28:52;96789.28;;;32.26;55.22
44385;BME280;30101;32.778;34.994;2022-07-10T07:33:55;96794.34;;;32.20;55.23
44385;BME280;30101;32.778;34.994;2022-07-10T07:38:59;96781.97;;;31.57;55.81
44385;BME280;30101;32.778;34.994;2022-07-10T07:44:03;96786.03;;;31.63;56.02
44385;BME280;30101;32.778;34.994;2022-07-10T07:49:07;96783.75;;;31.69;55.44
44385;BME280;30101;32.778;34.994;2022-07-10T07:54:11;96778.81;;;31.09;56.07
44385;BME280;30101;32.778;34.994;2022-07-10T07:59:15;96793.81;;;30.89;56.48
44385;BME280;30101;32.778;34.994;2022-07-10T08:04:18;96780.09;;;31.15;55.96
44385;BME280;30101;32.778;34.994;2022-07-10T08:09:22;96779.19;;;31.08;55.87
44385;BME280;30101;32.778;34.994;2022-07-10T08:14:25;96784.75;;;31.34;55.31
44385;BME280;30101;32.778;34.994;2022-07-10T08:19:29;96783.56;;;31.32;55.24
44385;BME280;30101;32.778;34.994;2022-07-10T08:24:33;96783.91;;;31.07;56.04
44385;BME280;30101;32.778;34.994;2022-07-10T08:29:36;96781.91;;;30.66;56.07
44385;BME280;30101;32.778;34.994;2022-07-10T08:34:40;96778.03;;;30.47;56.88
44385;BME280;30101;32.778;34.994;2022-07-10T08:39:43;96786.22;;;30.63;56.54
44385;BME280;30101;32.778;34.994;2022-07-10T08:44:47;96772.50;;;30.47;56.44
44385;BME280;30101;32.778;34.994;2022-07-10T08:49:51;96777.06;;;30.78;56.32
44385;BME280;30101;32.778;34.994;2022-07-10T08:54:55;96787.38;;;31.04;56.14
44385;BME280;30101;32.778;34.994;2022-07-10T08:59:59;96776.00;;;31.29;55.78
44385;BME280;30101;32.778;34.994;2022-07-10T09:05:06;96770.28;;;31.67;54.98
44385;BME280;30101;32.778;34.994;2022-07-10T09:10:11;96779.56;;;31.29;55.27
44385;BME280;30101;32.778;34.994;2022-07-10T09:15:16;96784.00;;;30.92;55.59
44385;BME280;30101;32.778;34.994;2022-07-10T09:25:32;96769.03;;;30.70;55.43
44385;BME280;30101;32.778;34.994;2022-07-10T09:30:37;96772.09;;;30.45;56.13
44385;BME280;30101;32.778;34.994;2022-07-10T09:46:26;96767.47;;;29.60;56.93
44385;BME280;30101;32.778;34.994;2022-07-10T09:51:31;96765.03;;;29.54;57.77
44385;BME280;30101;32.778;34.994;2022-07-10T09:56:47;96768.72;;;29.62;57.66
44385;BME280;30101;32.778;34.994;2022-07-10T10:01:52;96771.41;;;29.43;57.38
44385;BME280;30101;32.778;34.994;2022-07-10T10:06:57;96761.66;;;29.29;58.00
44385;BME280;30101;32.778;34.994;2022-07-10T10:12:09;96766.53;;;29.36;57.57
44385;BME280;30101;32.778;34.994;2022-07-10T10:17:17;96759.13;;;29.40;57.27
44385;BME280;30101;32.778;34.994;2022-07-10T10:22:22;96764.56;;;29.21;57.57
44385;BME280;30101;32.778;34.994;2022-07-10T10:27:26;96761.13;;;29.24;57.85
44385;BME280;30101;32.778;34.994;2022-07-10T10:32:30;96761.72;;;29.49;57.21
44385;BME280;30101;32.778;34.994;2022-07-10T10:37:38;96760.09;;;29.48;56.97
44385;BME280;30101;32.778;34.994;2022-07-10T10:42:43;96760.22;;;29.36;57.35
44385;BME280;30101;32.778;34.994;2022-07-10T10:48:09;96759.59;;;29.58;57.01
44385;BME280;30101;32.778;34.994;2022-07-10T10:53:33;96775.72;;;29.75;56.36
44385;BME280;30101;32.778;34.994;2022-07-10T10:58:38;96763.16;;;29.27;57.25
44385;BME280;30101;32.778;34.994;2022-07-10T11:14:35;96766.50;;;28.89;57.88
44385;BME280;30101;32.778;34.994;2022-07-10T11:19:39;96763.50;;;28.94;57.09
44385;BME280;30101;32.778;34.994;2022-07-10T11:24:49;96763.78;;;29.05;57.32
44385;BME280;30101;32.778;34.994;2022-07-10T11:30:00;96760.06;;;29.13;57.45
44385;BME280;30101;32.778;34.994;2022-07-10T11:35:12;96771.06;;;29.13;57.37
44385;BME280;30101;32.778;34.994;2022-07-10T11:40:16;96762.00;;;29.12;57.20
44385;BME280;30101;32.778;34.994;2022-07-10T11:45:28;96771.84;;;29.13;57.39
44385;BME280;30101;32.778;34.994;2022-07-10T11:50:37;96777.59;;;29.08;57.39
44385;BME280;30101;32.778;34.994;2022-07-10T11:55:40;96771.50;;;28.99;57.52
44385;BME280;30101;32.778;34.994;2022-07-10T12:00:57;96778.09;;;28.82;57.91
44385;BME280;30101;32.778;34.994;2022-07-10T12:06:05;96775.06;;;28.71;58.27
44385;BME280;30101;32.778;34.994;2022-07-10T12:11:16;96773.16;;;28.60;58.58
44385;BME280;30101;32.778;34.994;2022-07-10T12:16:20;96771.19;;;28.44;58.47
44385;BME280;30101;32.778;34.994;2022-07-10T12:21:24;96760.22;;;28.44;58.54
44385;BME280;30101;32.778;34.994;2022-07-10T12:26:38;96749.53;;;28.55;58.24
44385;BME280;30101;32.778;34.994;2022-07-10T12:31:41;96752.03;;;28.60;58.29
44385;BME280;30101;32.778;34.994;2022-07-10T12:36:51;96763.69;;;28.57;58.00
44385;BME280;30101;32.778;34.994;2022-07-10T12:47:01;96763.31;;;28.43;58.30
44385;BME280;30101;32.778;34.994;2022-07-10T12:52:28;96761.50;;;28.35;58.35
44385;BME280;30101;32.778;34.994;2022-07-10T12:57:50;96760.47;;;28.27;58.60
44385;BME280;30101;32.778;34.994;2022-07-10T13:02:59;96760.84;;;28.26;58.63
44385;BME280;30101;32.778;34.994;2022-07-10T13:08:18;96766.00;;;28.15;58.84
44385;BME280;30101;32.778;34.994;2022-07-10T13:13:23;96761.81;;;28.05;59.11
44385;BME280;30101;32.778;34.994;2022-07-10T13:18:27;96768.91;;;28.06;59.46
44385;BME280;30101;32.778;34.994;2022-07-10T13:23:31;96763.34;;;27.90;59.57
44385;BME280;30101;32.778;34.994;2022-07-10T13:28:34;96769.75;;;27.82;59.83
44385;BME280;30101;32.778;34.994;2022-07-10T13:33:38;96774.69;;;27.77;60.28
44385;BME280;30101;32.778;34.994;2022-07-10T13:38:42;96778.13;;;27.61;60.42
44385;BME280;30101;32.778;34.994;2022-07-10T13:43:46;96766.66;;;27.59;60.86
44385;BME280;30101;32.778;34.994;2022-07-10T13:48:49;96762.91;;;27.64;60.63
44385;BME280;30101;32.778;34.994;2022-07-10T13:53:53;96768.75;;;27.62;60.72
44385;BME280;30101;32.778;34.994;2022-07-10T13:58:57;96771.72;;;27.57;61.08
44385;BME280;30101;32.778;34.994;2022-07-10T14:04:00;96766.56;;;27.68;61.08
44385;BME280;30101;32.778;34.994;2022-07-10T14:09:04;96769.31;;;27.68;61.04
44385;BME280;30101;32.778;34.994;2022-07-10T14:14:09;96772.84;;;27.56;61.45
44385;BME280;30101;32.778;34.994;2022-07-10T14:19:12;96778.22;;;27.40;61.92
44385;BME280;30101;32.778;34.994;2022-07-10T14:24:16;96767.81;;;27.22;62.47
44385;BME280;30101;32.778;34.994;2022-07-10T14:29:20;96779.72;;;27.13;62.90
44385;BME280;30101;32.778;34.994;2022-07-10T14:34:23;96775.94;;;27.18;62.95
44385;BME280;30101;32.778;34.994;2022-07-10T14:39:27;96782.59;;;27.17;62.93
44385;BME280;30101;32.778;34.994;2022-07-10T14:44:33;96784.41;;;27.25;63.01
44385;BME280;30101;32.778;34.994;2022-07-10T14:49:37;96782.81;;;27.24;63.12
44385;BME280;30101;32.778;34.994;2022-07-10T14:54:40;96789.44;;;27.23;62.81
44385;BME280;30101;32.778;34.994;2022-07-10T14:59:43;96790.09;;;27.08;63.11
44385;BME280;30101;32.778;34.994;2022-07-10T15:04:47;96786.41;;;27.04;63.08
44385;BME280;30101;32.778;34.994;2022-07-10T15:09:51;96795.53;;;26.96;63.12
44385;BME280;30101;32.778;34.994;2022-07-10T15:14:57;96807.16;;;26.93;62.98
44385;BME280;30101;32.778;34.994;2022-07-10T15:20:02;96810.25;;;26.91;62.91
44385;BME280;30101;32.778;34.994;2022-07-10T15:25:07;96822.44;;;26.81;62.79
44385;BME280;30101;32.778;34.994;2022-07-10T15:30:12;96824.94;;;26.74;62.86
44385;BME280;30101;32.778;34.994;2022-07-10T15:35:16;96826.13;;;26.65;62.69
44385;BME280;30101;32.778;34.994;2022-07-10T15:40:19;96827.16;;;26.60;62.85
44385;BME280;30101;32.778;34.994;2022-07-10T15:45:24;96828.56;;;26.45;63.33
44385;BME280;30101;32.778;34.994;2022-07-10T15:50:27;96826.22;;;26.56;63.08
44385;BME280;30101;32.778;34.994;2022-07-10T15:55:36;96830.44;;;26.53;63.14
44385;BME280;30101;32.778;34.994;2022-07-10T16:00:41;96830.84;;;26.43;63.19
44385;BME280;30101;32.778;34.994;2022-07-10T16:05:44;96830.22;;;26.38;62.93
44385;BME280;30101;32.778;34.994;2022-07-10T16:10:48;96834.97;;;26.28;63.34
44385;BME280;30101;32.778;34.994;2022-07-10T16:15:52;96838.78;;;26.15;63.55
44385;BME280;30101;32.778;34.994;2022-07-10T16:20:56;96842.56;;;26.02;63.46
44385;BME280;30101;32.778;34.994;2022-07-10T16:26:00;96840.69;;;25.94;63.90
44385;BME280;30101;32.778;34.994;2022-07-10T16:31:04;96851.34;;;25.87;64.17
44385;BME280;30101;32.778;34.994;2022-07-10T16:36:14;96848.69;;;25.78;64.55
44385;BME280;30101;32.778;34.994;2022-07-10T16:41:19;96858.47;;;25.70;64.34
44385;BME280;30101;32.778;34.994;2022-07-10T16:46:23;96848.28;;;25.59;64.23
44385;BME280;30101;32.778;34.994;2022-07-10T16:51:26;96853.78;;;25.50;64.90
44385;BME280;30101;32.778;34.994;2022-07-10T16:56:30;96867.81;;;25.40;64.89
44385;BME280;30101;32.778;34.994;2022-07-10T17:01:33;96868.78;;;25.35;65.29
44385;BME280;30101;32.778;34.994;2022-07-10T17:06:41;96871.06;;;25.33;65.02
44385;BME280;30101;32.778;34.994;2022-07-10T17:11:46;96880.69;;;25.31;65.22
44385;BME280;30101;32.778;34.994;2022-07-10T17:16:50;96882.28;;;25.32;65.35
44385;BME280;30101;32.778;34.994;2022-07-10T17:21:54;96894.53;;;25.34;65.68
44385;BME280;30101;32.778;34.994;2022-07-10T17:27:02;96897.88;;;25.31;65.94
44385;BME280;30101;32.778;34.994;2022-07-10T17:32:06;96897.75;;;25.27;66.19
44385;BME280;30101;32.778;34.994;2022-07-10T17:37:10;96913.19;;;25.23;66.29
44385;BME280;30101;32.778;34.994;2022-07-10T17:42:14;96906.75;;;25.19;66.27
44385;BME280;30101;32.778;34.994;2022-07-10T17:47:18;96913.34;;;25.18;66.68
44385;BME280;30101;32.778;34.994;2022-07-10T17:52:22;96927.69;;;25.15;66.48
44385;BME280;30101;32.778;34.994;2022-07-10T17:57:31;96939.56;;;25.11;66.27
44385;BME280;30101;32.778;34.994;2022-07-10T18:02:34;96937.81;;;25.06;66.27
44385;BME280;30101;32.778;34.994;2022-07-10T18:07:38;96948.22;;;25.04;66.66
44385;BME280;30101;32.778;34.994;2022-07-10T18:12:41;96952.09;;;25.03;66.50
44385;BME280;30101;32.778;34.994;2022-07-10T18:17:45;96957.38;;;24.99;66.63
44385;BME280;30101;32.778;34.994;2022-07-10T18:22:50;96960.59;;;25.01;67.22
44385;BME280;30101;32.778;34.994;2022-07-10T18:27:53;96962.06;;;25.08;67.00
44385;BME280;30101;32.778;34.994;2022-07-10T18:32:57;96969.44;;;25.07;67.32
44385;BME280;30101;32.778;34.994;2022-07-10T18:38:04;96972.81;;;25.04;67.45
44385;BME280;30101;32.778;34.994;2022-07-10T18:43:08;96972.81;;;25.04;67.22
44385;BME280;30101;32.778;34.994;2022-07-10T18:48:11;96976.84;;;25.07;67.42
44385;BME280;30101;32.778;34.994;2022-07-10T18:53:15;96985.03;;;25.07;67.55
44385;BME280;30101;32.778;34.994;2022-07-10T18:58:18;96979.28;;;25.08;67.51
44385;BME280;30101;32.778;34.994;2022-07-10T19:03:22;96980.72;;;25.06;67.27
44385;BME280;30101;32.778;34.994;2022-07-10T19:08:27;96986.28;;;25.00;67.68
44385;BME280;30101;32.778;34.994;2022-07-10T19:13:30;96988.72;;;25.02;67.83
44385;BME280;30101;32.778;34.994;2022-07-10T19:18:34;96986.50;;;24.95;67.98
44385;BME280;30101;32.778;34.994;2022-07-10T19:23:37;96983.59;;;24.92;68.18
44385;BME280;30101;32.778;34.994;2022-07-10T19:28:43;96988.72;;;24.93;68.03
44385;BME280;30101;32.778;34.994;2022-07-10T19:33:46;96993.03;;;24.94;68.14
44385;BME280;30101;32.778;34.994;2022-07-10T19:38:50;96983.59;;;24.92;68.33
44385;BME280;30101;32.778;34.994;2022-07-10T19:43:53;96990.16;;;24.91;68.42
44385;BME280;30101;32.778;34.994;2022-07-10T19:48:57;96986.31;;;24.92;68.55
44385;BME280;30101;32.778;34.994;2022-07-10T19:54:01;96996.91;;;24.93;68.29
44385;BME280;30101;32.778;34.994;2022-07-10T19:59:05;96991.59;;;24.88;67.94
44385;BME280;30101;32.778;34.994;2022-07-10T20:04:10;96984.88;;;24.86;68.30
44385;BME280;30101;32.778;34.994;2022-07-10T20:09:13;96984.53;;;24.87;67.88
44385;BME280;30101;32.778;34.994;2022-07-10T20:14:17;96975.69;;;24.82;68.03
44385;BME280;30101;32.778;34.994;2022-07-10T20:19:22;96974.25;;;24.75;67.78
44385;BME280;30101;32.778;34.994;2022-07-10T20:24:26;96980.03;;;24.74;67.56
44385;BME280;30101;32.778;34.994;2022-07-10T20:29:30;96975.06;;;24.67;67.65
44385;BME280;30101;32.778;34.994;2022-07-10T20:34:34;96971.69;;;24.62;67.59
44385;BME280;30101;32.778;34.994;2022-07-10T20:39:37;96971.34;;;24.55;67.84
44385;BME280;30101;32.778;34.994;2022-07-10T20:44:41;96973.75;;;24.47;67.85
44385;BME280;30101;32.778;34.994;2022-07-10T20:49:44;96971.50;;;24.41;67.85
44385;BME280;30101;32.778;34.994;2022-07-10T20:54:48;96983.53;;;24.40;68.01
44385;BME280;30101;32.778;34.994;2022-07-10T20:59:52;96978.88;;;24.40;67.88
44385;BME280;30101;32.778;34.994;2022-07-10T21:04:56;96982.09;;;24.42;68.11
44385;BME280;30101;32.778;34.994;2022-07-10T21:10:00;96966.69;;;24.46;67.76
44385;BME280;30101;32.778;34.994;2022-07-10T21:15:05;96959.16;;;24.52;67.70
44385;BME280;30101;32.778;34.994;2022-07-10T21:20:09;96959.00;;;24.57;67.94
44385;BME280;30101;32.778;34.994;2022-07-10T21:25:13;96956.75;;;24.59;68.07
44385;BME280;30101;32.778;34.994;2022-07-10T21:30:21;96961.09;;;24.60;67.73
44385;BME280;30101;32.778;34.994;2022-07-10T21:35:24;96965.56;;;24.56;68.17
44385;BME280;30101;32.778;34.994;2022-07-10T21:40:28;96964.63;;;24.52;67.90
44385;BME280;30101;32.778;34.994;2022-07-10T21:45:32;96955.13;;;24.49;68.29
44385;BME280;30101;32.778;34.994;2022-07-10T21:50:35;96965.56;;;24.47;68.19
44385;BME280;30101;32.778;34.994;2022-07-10T21:55:38;96960.13;;;24.47;68.18
44385;BME280;30101;32.778;34.994;2022-07-10T22:00:42;96961.25;;;24.46;68.00
44385;BME280;30101;32.778;34.994;2022-07-10T22:05:46;96948.38;;;24.38;68.14
44385;BME280;30101;32.778;34.994;2022-07-10T22:10:50;96950.63;;;24.36;68.18
44385;BME280;30101;32.778;34.994;2022-07-10T22:15:54;96963.78;;;24.34;68.29
44385;BME280;30101;32.778;34.994;2022-07-10T22:20:58;96955.91;;;24.33;68.04
44385;BME280;30101;32.778;34.994;2022-07-10T22:26:02;96965.84;;;24.29;67.96
44385;BME280;30101;32.778;34.994;2022-07-10T22:31:06;96960.84;;;24.31;68.07
44385;BME280;30101;32.778;34.994;2022-07-10T22:36:10;96960.38;;;24.29;67.57
44385;BME280;30101;32.778;34.994;2022-07-10T22:41:15;96955.88;;;24.24;67.34
44385;BME280;30101;32.778;34.994;2022-07-10T22:46:18;96954.91;;;24.20;67.16
44385;BME280;30101;32.778;34.994;2022-07-10T22:51:22;96951.34;;;24.11;67.35
44385;BME280;30101;32.778;34.994;2022-07-10T22:56:26;96946.03;;;24.06;67.75
44385;BME280;30101;32.778;34.994;2022-07-10T23:01:29;96954.53;;;24.04;67.52
44385;BME280;30101;32.778;34.994;2022-07-10T23:06:33;96953.41;;;24.05;67.55
44385;BME280;30101;32.778;34.994;2022-07-10T23:11:36;96945.72;;;24.07;67.52
44385;BME280;30101;32.778;34.994;2022-07-10T23:16:42;96940.91;;;24.13;67.33
44385;BME280;30101;32.778;34.994;2022-07-10T23:21:46;96942.38;;;24.19;67.24
44385;BME280;30101;32.778;34.994;2022-07-10T23:26:49;96936.63;;;24.20;67.53
44385;BME280;30101;32.778;34.994;2022-07-10T23:31:53;96935.81;;;24.20;67.18
44385;BME280;30101;32.778;34.994;2022-07-10T23:36:58;96937.41;;;24.21;67.55
44385;BME280;30101;32.778;34.994;2022-07-10T23:42:02;96941.75;;;24.22;67.28
44385;BME280;30101;32.778;34.994;2022-07-10T23:47:06;96946.72;;;24.20;67.23
44385;BME280;30101;32.778;34.994;2022-07-10T23:52:10;96941.41;;;24.15;67.26
44385;BME280;30101;32.778;34.994;2022-07-10T23:57:20;96946.22;;;24.09;67.48
